Time;durP1;ratioP1;P1;durP2;ratioP2;P2;SDS_P1;SDS_P2;PMS_P1;PMS_P2;Temp;Humidity;BMP_temperature;BMP_pressure;BME280_temperature;BME280_humidity;BME280_pressure;Samples;Min_cycle;Max_cycle;Signal;HPM_P1;HPM_P2
2023/04/28 00:00:49;;;;;;;0.70;0.50;;;10.00;62.70;;;;;;5113592;28;20505;-70
2023/04/28 00:03:15;;;;;;;0.65;0.63;;;10.00;62.70;;;;;;5113170;28;20035;-71
2023/04/28 00:05:41;;;;;;;0.88;0.57;;;9.90;62.70;;;;;;5112761;28;20447;-70
2023/04/28 00:08:07;;;;;;;0.95;0.70;;;9.90;62.70;;;;;;5094063;28;20036;-71
2023/04/28 00:10:33;;;;;;;0.93;0.80;;;9.90;62.70;;;;;;5112946;28;20489;-71
2023/04/28 00:12:59;;;;;;;0.40;0.40;;;9.90;62.70;;;;;;5092614;28;20044;-71
2023/04/28 00:15:25;;;;;;;1.00;0.65;;;9.90;62.80;;;;;;5112955;28;20362;-71
2023/04/28 00:17:51;;;;;;;0.50;0.50;;;9.90;62.90;;;;;;5093942;28;20125;-71
2023/04/28 00:20:16;;;;;;;0.60;0.60;;;9.90;63.00;;;;;;5092625;28;20048;-71
2023/04/28 00:22:42;;;;;;;0.50;0.50;;;9.80;63.00;;;;;;5112698;28;20032;-71
2023/04/28 00:25:08;;;;;;;0.55;0.50;;;9.70;63.00;;;;;;5093447;28;20048;-70
2023/04/28 00:27:35;;;;;;;1.33;0.85;;;9.80;63.10;;;;;;5076006;28;20109;-71
2023/04/28 00:30:01;;;;;;;0.52;0.45;;;9.80;63.20;;;;;;5077570;28;20104;-71
2023/04/28 00:32:26;;;;;;;0.50;0.50;;;9.70;63.20;;;;;;5112544;28;20043;-71
2023/04/28 00:34:52;;;;;;;0.77;0.60;;;9.70;63.40;;;;;;5092801;28;20044;-71
2023/04/28 00:37:19;;;;;;;0.32;0.32;;;9.70;63.40;;;;;;5112901;28;20126;-71
2023/04/28 00:39:45;;;;;;;0.47;0.47;;;9.60;63.40;;;;;;5112450;28;20039;-71
2023/04/28 00:42:12;;;;;;;0.60;0.60;;;9.70;63.50;;;;;;5077380;28;20492;-71
2023/04/28 00:44:38;;;;;;;0.30;0.30;;;9.60;63.50;;;;;;5112604;28;20044;-71
2023/04/28 00:47:04;;;;;;;0.60;0.60;;;9.60;64.20;;;;;;5094131;28;20527;-71
2023/04/28 00:49:30;;;;;;;0.40;0.40;;;9.60;63.50;;;;;;5112430;28;20116;-71
2023/04/28 00:51:56;;;;;;;0.47;0.40;;;9.60;63.60;;;;;;5092836;28;20036;-71
2023/04/28 00:54:22;;;;;;;0.80;0.50;;;9.60;63.60;;;;;;5112408;28;20078;-71
2023/04/28 00:56:48;;;;;;;0.50;0.50;;;9.60;63.60;;;;;;5112446;28;20052;-71
2023/04/28 00:59:14;;;;;;;1.00;0.77;;;9.60;63.60;;;;;;5112407;28;20046;-72
2023/04/28 01:01:40;;;;;;;0.45;0.45;;;9.60;63.60;;;;;;5112632;28;20039;-71
2023/04/28 01:04:05;;;;;;;0.73;0.60;;;9.60;63.60;;;;;;5112448;28;20032;-71
2023/04/28 01:06:32;;;;;;;0.38;0.38;;;9.60;63.70;;;;;;5112079;28;20485;-71
2023/04/28 01:08:57;;;;;;;0.82;0.63;;;9.50;63.60;;;;;;5094222;28;20548;-71
2023/04/28 01:11:23;;;;;;;0.52;0.50;;;9.60;63.70;;;;;;5097790;28;20043;-71
2023/04/28 01:13:48;;;;;;;0.43;0.43;;;9.60;63.70;;;;;;5115727;28;20071;-71
2023/04/28 01:16:14;;;;;;;0.68;0.60;;;9.60;63.70;;;;;;5115584;28;20511;-71
2023/04/28 01:18:46;;;;;;;0.50;0.50;;;9.60;63.80;;;;;;5115448;28;20089;-71
2023/04/28 01:21:11;;;;;;;0.43;0.38;;;9.60;63.90;;;;;;5115441;28;20063;-70
2023/04/28 01:23:37;;;;;;;0.50;0.40;;;9.50;63.90;;;;;;5115579;28;20067;-71
2023/04/28 01:26:03;;;;;;;0.77;0.60;;;9.50;64.00;;;;;;5115912;28;20134;-70
2023/04/28 01:28:29;;;;;;;1.13;0.50;;;9.40;64.20;;;;;;5115704;28;20071;-70
2023/04/28 01:30:55;;;;;;;0.40;0.40;;;9.30;64.40;;;;;;5096203;28;20438;-70
2023/04/28 01:33:21;;;;;;;0.30;0.30;;;9.30;64.70;;;;;;5115536;28;20454;-70
2023/04/28 01:35:46;;;;;;;0.47;0.47;;;9.20;64.90;;;;;;5115343;28;20069;-71
2023/04/28 01:38:12;;;;;;;0.65;0.60;;;9.20;65.20;;;;;;5115212;28;20039;-70
2023/04/28 01:40:37;;;;;;;0.60;0.60;;;9.10;65.30;;;;;;5115418;28;20389;-70
2023/04/28 01:43:03;;;;;;;0.70;0.57;;;9.10;65.50;;;;;;5115459;28;20495;-70
2023/04/28 01:45:29;;;;;;;0.60;0.57;;;9.10;65.70;;;;;;5097179;28;20036;-70
2023/04/28 01:47:54;;;;;;;2.13;0.70;;;9.00;65.80;;;;;;5115378;28;20397;-70
2023/04/28 01:50:20;;;;;;;0.70;0.70;;;9.00;65.90;;;;;;5095157;28;20079;-70
2023/04/28 01:52:46;;;;;;;0.55;0.55;;;9.00;66.00;;;;;;5115049;28;20035;-70
2023/04/28 01:55:11;;;;;;;0.40;0.40;;;8.90;66.00;;;;;;5115206;28;20044;-70
2023/04/28 01:57:37;;;;;;;0.65;0.50;;;8.90;66.20;;;;;;5115048;28;20554;-70
2023/04/28 02:00:03;;;;;;;0.52;0.50;;;8.90;66.20;;;;;;5114961;28;20044;-70
2023/04/28 02:02:29;;;;;;;0.70;0.60;;;8.90;66.30;;;;;;5114805;28;20031;-71
2023/04/28 02:04:56;;;;;;;0.90;0.60;;;8.90;66.40;;;;;;5115332;28;20450;-70
2023/04/28 02:07:22;;;;;;;0.80;0.70;;;8.90;66.40;;;;;;5114901;28;20036;-70
2023/04/28 02:09:48;;;;;;;0.85;0.68;;;8.90;66.40;;;;;;5096191;28;20589;-70
2023/04/28 02:12:14;;;;;;;0.65;0.52;;;8.90;66.40;;;;;;5078209;28;20497;-70
2023/04/28 02:14:39;;;;;;;0.40;0.40;;;8.90;66.50;;;;;;5114688;28;20087;-71
2023/04/28 02:17:05;;;;;;;0.60;0.60;;;8.90;66.50;;;;;;5114836;28;20039;-70
2023/04/28 02:19:30;;;;;;;0.60;0.60;;;8.90;66.50;;;;;;5113653;28;20035;-70
2023/04/28 02:21:56;;;;;;;0.68;0.55;;;8.80;66.50;;;;;;5114873;28;20073;-70
2023/04/28 02:24:22;;;;;;;1.30;0.60;;;8.80;66.50;;;;;;5095900;28;20138;-70
2023/04/28 02:26:47;;;;;;;0.75;0.63;;;8.90;66.60;;;;;;5114832;28;20046;-70
2023/04/28 02:29:13;;;;;;;0.40;0.40;;;8.90;66.70;;;;;;5114907;28;20058;-70
2023/04/28 02:31:39;;;;;;;1.15;0.68;;;8.90;66.70;;;;;;5114818;28;20497;-70
2023/04/28 02:34:05;;;;;;;0.40;0.40;;;8.90;66.70;;;;;;5114344;28;20039;-70
2023/04/28 02:36:32;;;;;;;0.40;0.40;;;9.00;66.70;;;;;;5114915;28;20461;-71
2023/04/28 02:38:57;;;;;;;0.38;0.30;;;8.90;66.70;;;;;;5114355;28;20077;-71
2023/04/28 02:41:23;;;;;;;0.35;0.35;;;8.80;66.70;;;;;;5095346;28;20048;-71
2023/04/28 02:43:49;;;;;;;0.50;0.50;;;8.90;66.80;;;;;;5094605;28;20047;-70
2023/04/28 02:46:14;;;;;;;0.40;0.40;;;8.80;66.80;;;;;;5114139;28;20500;-71
2023/04/28 02:48:40;;;;;;;0.57;0.50;;;8.90;67.50;;;;;;5114346;28;20232;-71
2023/04/28 02:51:06;;;;;;;0.38;0.38;;;8.80;66.80;;;;;;5114228;28;20485;-71
2023/04/28 02:53:31;;;;;;;1.25;0.70;;;8.80;66.80;;;;;;5113998;28;20055;-71
2023/04/28 02:55:58;;;;;;;0.70;0.50;;;8.80;66.80;;;;;;5114254;28;20139;-70
2023/04/28 02:58:24;;;;;;;0.60;0.43;;;8.90;66.90;;;;;;5113868;28;20035;-70
2023/04/28 03:00:49;;;;;;;0.68;0.50;;;8.90;66.90;;;;;;5114251;28;20050;-70
2023/04/28 03:03:15;;;;;;;0.50;0.50;;;8.80;66.80;;;;;;5114323;28;20374;-70
2023/04/28 03:05:40;;;;;;;0.50;0.45;;;8.90;66.90;;;;;;5113847;28;20177;-71
2023/04/28 03:08:06;;;;;;;0.55;0.55;;;8.90;66.90;;;;;;5114220;28;20032;-70
2023/04/28 03:10:32;;;;;;;0.63;0.60;;;8.90;66.90;;;;;;5113871;28;20035;-70
2023/04/28 03:12:57;;;;;;;0.60;0.60;;;8.90;66.90;;;;;;5114177;28;20061;-70
2023/04/28 03:15:23;;;;;;;0.35;0.35;;;8.90;66.90;;;;;;5113890;28;20048;-71
2023/04/28 03:17:49;;;;;;;0.88;0.60;;;8.80;66.90;;;;;;5113978;28;20139;-71
2023/04/28 03:20:15;;;;;;;0.52;0.45;;;8.90;67.00;;;;;;5114041;28;20048;-71
2023/04/28 03:22:40;;;;;;;0.47;0.47;;;8.90;67.00;;;;;;5093598;28;20402;-70
2023/04/28 03:25:06;;;;;;;0.63;0.60;;;8.80;66.90;;;;;;5113502;28;20032;-70
2023/04/28 03:27:32;;;;;;;0.40;0.40;;;8.80;66.90;;;;;;5094213;28;20032;-71
2023/04/28 03:29:57;;;;;;;0.75;0.60;;;8.80;67.00;;;;;;5095388;28;20124;-71
2023/04/28 03:32:23;;;;;;;1.52;0.70;;;8.80;67.00;;;;;;5113261;28;20061;-71
2023/04/28 03:34:48;;;;;;;0.52;0.50;;;9.00;67.10;;;;;;5113613;28;20108;-71
2023/04/28 03:37:14;;;;;;;0.80;0.60;;;8.80;67.60;;;;;;5113755;28;20035;-71
2023/04/28 03:39:40;;;;;;;0.75;0.60;;;8.80;67.00;;;;;;5113383;28;20048;-71
2023/04/28 03:42:05;;;;;;;1.05;0.77;;;8.90;67.10;;;;;;5113162;28;20397;-70
2023/04/28 03:44:31;;;;;;;0.45;0.38;;;8.90;67.10;;;;;;5113623;28;20039;-70
2023/04/28 03:46:56;;;;;;;0.63;0.60;;;8.90;67.10;;;;;;5113564;28;20042;-71
2023/04/28 03:49:22;;;;;;;0.70;0.60;;;8.80;67.10;;;;;;5113230;28;20032;-70
2023/04/28 03:51:50;;;;;;;0.70;0.55;;;8.80;67.10;;;;;;5113299;28;20043;-71
2023/04/28 03:54:15;;;;;;;0.55;0.52;;;8.90;67.20;;;;;;5092872;28;20338;-70
2023/04/28 03:56:41;;;;;;;0.82;0.52;;;8.80;67.30;;;;;;5113232;28;20134;-71
2023/04/28 03:59:10;;;;;;;0.75;0.60;;;8.80;67.20;;;;;;5113308;28;20035;-70
2023/04/28 04:01:36;;;;;;;0.90;0.68;;;8.80;67.30;;;;;;5113064;28;20036;-70
2023/04/28 04:04:03;;;;;;;1.02;0.80;;;8.80;67.30;;;;;;5076119;28;20115;-71
2023/04/28 04:06:29;;;;;;;0.68;0.68;;;8.80;67.40;;;;;;5113208;28;20079;-70
2023/04/28 04:08:55;;;;;;;0.65;0.60;;;8.80;67.40;;;;;;5060218;28;20039;-71
2023/04/28 04:11:21;;;;;;;0.40;0.40;;;8.80;67.50;;;;;;5094859;28;20089;-71
2023/04/28 04:13:46;;;;;;;0.47;0.47;;;8.80;67.50;;;;;;5095347;28;20044;-71
2023/04/28 04:16:14;;;;;;;1.58;0.60;;;8.80;67.60;;;;;;5113231;28;20036;-71
2023/04/28 04:18:40;;;;;;;0.77;0.52;;;8.80;67.70;;;;;;5113089;28;20048;-70
2023/04/28 04:21:06;;;;;;;0.50;0.50;;;8.80;67.70;;;;;;5112858;28;20036;-70
2023/04/28 04:23:31;;;;;;;0.45;0.40;;;8.80;67.70;;;;;;5094121;28;20040;-70
2023/04/28 04:25:57;;;;;;;0.45;0.45;;;8.80;67.70;;;;;;5112957;28;20039;-70
2023/04/28 04:28:23;;;;;;;0.93;0.63;;;8.80;67.80;;;;;;5113458;28;20034;-70
2023/04/28 04:30:48;;;;;;;0.52;0.50;;;8.80;67.90;;;;;;5113114;28;20417;-70
2023/04/28 04:33:14;;;;;;;0.80;0.70;;;8.80;67.90;;;;;;5112854;28;20044;-70
2023/04/28 04:35:40;;;;;;;1.15;0.68;;;8.80;67.90;;;;;;5094811;28;20044;-70
2023/04/28 04:38:06;;;;;;;0.50;0.50;;;8.70;67.90;;;;;;5112994;28;20050;-70
2023/04/28 04:40:31;;;;;;;0.50;0.50;;;8.80;68.00;;;;;;5112633;28;20048;-70
2023/04/28 04:42:57;;;;;;;0.63;0.57;;;8.80;68.10;;;;;;5112173;28;20028;-70
2023/04/28 04:45:23;;;;;;;0.57;0.50;;;8.80;68.10;;;;;;5112703;28;20405;-70
2023/04/28 04:47:48;;;;;;;0.70;0.70;;;8.90;68.20;;;;;;5112656;28;20032;-70
2023/04/28 04:50:14;;;;;;;0.80;0.70;;;8.70;68.20;;;;;;5112612;28;20044;-70
2023/04/28 04:52:40;;;;;;;0.70;0.60;;;8.70;68.20;;;;;;5112473;28;20031;-70
2023/04/28 04:55:06;;;;;;;0.52;0.50;;;8.80;68.40;;;;;;5112407;28;20101;-70
2023/04/28 04:57:32;;;;;;;0.90;0.60;;;8.80;68.40;;;;;;5112481;28;20100;-70
2023/04/28 04:59:57;;;;;;;0.60;0.60;;;8.80;68.40;;;;;;5112720;28;20040;-69
2023/04/28 05:02:23;;;;;;;0.38;0.38;;;8.80;68.50;;;;;;5076061;28;20106;-69
2023/04/28 05:04:48;;;;;;;0.52;0.50;;;8.80;68.50;;;;;;5112819;28;20036;-70
2023/04/28 05:07:14;;;;;;;0.57;0.50;;;8.80;68.50;;;;;;5112942;28;20130;-70
2023/04/28 05:09:39;;;;;;;0.50;0.50;;;8.90;68.60;;;;;;5112658;28;20046;-70
2023/04/28 05:12:05;;;;;;;0.52;0.52;;;8.90;68.70;;;;;;5112649;28;20048;-70
2023/04/28 05:14:31;;;;;;;0.40;0.40;;;8.90;68.70;;;;;;5093716;28;20054;-70
2023/04/28 05:16:56;;;;;;;0.63;0.63;;;8.90;68.70;;;;;;5112312;28;20048;-72
2023/04/28 05:19:22;;;;;;;0.75;0.55;;;8.90;68.70;;;;;;5112013;28;20043;-70
2023/04/28 05:21:49;;;;;;;0.50;0.50;;;9.00;68.80;;;;;;5076658;28;20040;-70
2023/04/28 05:24:14;;;;;;;0.60;0.57;;;9.00;68.80;;;;;;5112149;28;20046;-70
2023/04/28 05:26:40;;;;;;;1.45;0.65;;;9.10;68.80;;;;;;5112127;28;20089;-71
2023/04/28 05:29:06;;;;;;;0.80;0.70;;;9.10;68.90;;;;;;5093713;28;20044;-70
2023/04/28 05:31:31;;;;;;;0.70;0.50;;;9.10;68.90;;;;;;5093089;28;20130;-70
2023/04/28 05:33:57;;;;;;;0.75;0.70;;;9.10;68.90;;;;;;5112374;28;20040;-70
2023/04/28 05:36:23;;;;;;;0.70;0.70;;;9.10;69.50;;;;;;5112064;28;20036;-70
2023/04/28 05:38:49;;;;;;;0.68;0.60;;;9.10;68.90;;;;;;5112496;28;20043;-70
2023/04/28 05:41:14;;;;;;;0.52;0.52;;;9.20;69.00;;;;;;5112317;28;20032;-70
2023/04/28 05:43:40;;;;;;;0.57;0.57;;;9.20;69.10;;;;;;5111876;28;20093;-70
2023/04/28 05:46:06;;;;;;;0.98;0.68;;;9.20;69.10;;;;;;5111836;28;20039;-70
2023/04/28 05:48:31;;;;;;;1.88;0.70;;;9.30;69.20;;;;;;5111982;28;20050;-70
2023/04/28 05:50:57;;;;;;;1.30;0.65;;;9.20;69.20;;;;;;5093681;28;20051;-70
2023/04/28 05:53:23;;;;;;;1.88;0.82;;;9.30;69.30;;;;;;5111815;28;20036;-70
2023/04/28 05:55:48;;;;;;;1.38;0.70;;;9.30;69.30;;;;;;5113568;28;20043;-70
2023/04/28 05:58:14;;;;;;;0.70;0.70;;;9.30;69.40;;;;;;5115343;28;20370;-70
2023/04/28 06:00:40;;;;;;;1.00;0.70;;;9.50;69.60;;;;;;5114916;28;20480;-70
2023/04/28 06:03:09;;;;;;;0.82;0.70;;;9.50;69.60;;;;;;5115167;28;20393;-70
2023/04/28 06:05:34;;;;;;;0.70;0.70;;;9.40;69.60;;;;;;5095378;28;20048;-70
2023/04/28 06:08:00;;;;;;;1.17;0.93;;;9.50;69.70;;;;;;5115465;28;20362;-70
2023/04/28 06:10:26;;;;;;;1.30;0.70;;;9.50;69.80;;;;;;5115533;28;20127;-70
2023/04/28 06:12:51;;;;;;;0.80;0.80;;;9.50;70.00;;;;;;5115242;28;20050;-70
2023/04/28 06:15:17;;;;;;;0.80;0.73;;;9.50;70.20;;;;;;5115330;28;20036;-70
2023/04/28 06:17:43;;;;;;;1.15;0.90;;;9.50;70.40;;;;;;5114951;28;20047;-70
2023/04/28 06:20:11;;;;;;;0.80;0.80;;;9.60;70.70;;;;;;5114930;28;20050;-71
2023/04/28 06:22:36;;;;;;;0.75;0.60;;;9.60;70.80;;;;;;5078464;28;20040;-70
2023/04/28 06:25:02;;;;;;;0.90;0.70;;;9.50;70.90;;;;;;5115072;28;20092;-70
2023/04/28 06:27:31;;;;;;;0.70;0.70;;;9.60;71.10;;;;;;5115169;28;20480;-71
2023/04/28 06:29:57;;;;;;;0.93;0.60;;;9.70;71.30;;;;;;5095364;28;20043;-70
2023/04/28 06:32:23;;;;;;;1.70;0.80;;;9.60;71.30;;;;;;5114984;28;20051;-71
2023/04/28 06:34:48;;;;;;;0.80;0.70;;;9.70;71.50;;;;;;5114690;28;20058;-71
2023/04/28 06:37:14;;;;;;;1.35;1.08;;;9.70;71.50;;;;;;5114578;28;20047;-70
2023/04/28 06:39:40;;;;;;;1.30;0.90;;;9.70;71.70;;;;;;5114545;28;20084;-70
2023/04/28 06:42:06;;;;;;;1.58;0.82;;;9.70;71.80;;;;;;5096314;28;20032;-70
2023/04/28 06:44:31;;;;;;;0.77;0.75;;;9.80;72.00;;;;;;5114627;28;20035;-70
2023/04/28 06:46:57;;;;;;;1.08;0.85;;;9.90;72.10;;;;;;5114854;28;20036;-70
2023/04/28 06:49:22;;;;;;;1.00;0.70;;;9.80;72.00;;;;;;5114897;28;20066;-70
2023/04/28 06:51:48;;;;;;;2.03;0.80;;;10.00;72.10;;;;;;5114185;28;20038;-70
2023/04/28 06:54:15;;;;;;;1.45;1.02;;;10.10;72.20;;;;;;5094609;28;20072;-70
2023/04/28 06:56:41;;;;;;;0.90;0.70;;;10.20;72.20;;;;;;5114346;28;20126;-70
2023/04/28 06:59:07;;;;;;;1.27;0.80;;;10.30;72.20;;;;;;5095875;28;20138;-70
2023/04/28 07:01:32;;;;;;;0.85;0.80;;;10.40;72.20;;;;;;5114212;28;20039;-71
2023/04/28 07:03:58;;;;;;;1.20;1.00;;;10.50;72.20;;;;;;5114797;28;20036;-70
2023/04/28 07:06:26;;;;;;;0.85;0.77;;;10.60;72.20;;;;;;5094980;28;20047;-71
2023/04/28 07:08:52;;;;;;;1.25;0.95;;;10.70;72.20;;;;;;5114223;28;20040;-70
2023/04/28 07:11:18;;;;;;;1.30;0.95;;;10.80;72.10;;;;;;5114134;28;20088;-70
2023/04/28 07:13:50;;;;;;;1.05;0.90;;;11.00;72.10;;;;;;5078955;28;20040;-71
2023/04/28 07:16:17;;;;;;;1.77;1.13;;;11.10;72.10;;;;;;5114088;28;20096;-70
2023/04/28 07:18:43;;;;;;;1.60;0.90;;;11.10;72.00;;;;;;5095608;28;20046;-70
2023/04/28 07:21:09;;;;;;;1.52;1.02;;;11.30;72.20;;;;;;5094854;28;20040;-70
2023/04/28 07:23:37;;;;;;;0.77;0.70;;;11.20;72.20;;;;;;5113864;28;20489;-70
2023/04/28 07:26:03;;;;;;;1.30;0.80;;;11.20;72.40;;;;;;5113839;28;20058;-70
2023/04/28 07:28:29;;;;;;;0.90;0.85;;;11.30;72.50;;;;;;5113750;28;20077;-70
2023/04/28 07:30:55;;;;;;;1.38;1.05;;;11.40;72.70;;;;;;5114179;28;20043;-70
2023/04/28 07:33:20;;;;;;;1.90;1.23;;;11.30;72.80;;;;;;5113743;28;20032;-70
2023/04/28 07:35:46;;;;;;;1.55;1.13;;;11.40;73.10;;;;;;5113596;28;20431;-71
2023/04/28 07:38:12;;;;;;;1.25;1.02;;;11.40;73.20;;;;;;5094206;28;20072;-70
2023/04/28 07:40:38;;;;;;;1.15;1.02;;;11.60;73.30;;;;;;5093651;28;20094;-70
2023/04/28 07:43:03;;;;;;;1.95;1.10;;;11.70;73.30;;;;;;5096073;28;20130;-70
2023/04/28 07:45:29;;;;;;;1.90;1.30;;;11.70;73.20;;;;;;5113866;28;20031;-70
2023/04/28 07:47:55;;;;;;;1.02;0.93;;;11.80;73.20;;;;;;5093803;28;20047;-70
2023/04/28 07:50:20;;;;;;;1.27;1.10;;;11.90;73.20;;;;;;5113439;28;20058;-70
2023/04/28 07:52:46;;;;;;;1.38;1.00;;;11.90;73.30;;;;;;5113481;28;20044;-70
2023/04/28 07:55:12;;;;;;;1.10;0.95;;;12.00;73.40;;;;;;5113944;28;20142;-70
2023/04/28 07:57:38;;;;;;;1.17;1.00;;;12.00;73.50;;;;;;5113415;28;20108;-70
2023/04/28 08:00:04;;;;;;;1.10;0.82;;;12.00;73.50;;;;;;5094796;28;20062;-70
2023/04/28 08:02:30;;;;;;;1.25;1.15;;;12.10;73.60;;;;;;5113416;28;20536;-70
2023/04/28 08:04:56;;;;;;;1.30;1.10;;;12.10;73.70;;;;;;5092872;28;20083;-70
2023/04/28 08:07:21;;;;;;;1.95;0.90;;;12.20;73.90;;;;;;5113697;28;20039;-70
2023/04/28 08:09:47;;;;;;;1.50;1.05;;;12.10;73.90;;;;;;5113100;28;20058;-71
2023/04/28 08:12:14;;;;;;;1.58;1.10;;;12.20;74.00;;;;;;5095184;28;20035;-70
2023/04/28 08:14:40;;;;;;;1.40;1.02;;;12.20;74.10;;;;;;5112971;28;20035;-71
2023/04/28 08:17:05;;;;;;;0.90;0.90;;;12.20;74.30;;;;;;5112881;28;20092;-71
2023/04/28 08:19:32;;;;;;;1.65;1.08;;;12.30;74.40;;;;;;5112467;28;20039;-71
2023/04/28 08:21:58;;;;;;;1.40;1.00;;;12.30;74.40;;;;;;5113014;28;20088;-71
2023/04/28 08:24:24;;;;;;;1.52;1.08;;;12.30;74.50;;;;;;5113311;28;20114;-71
2023/04/28 08:26:50;;;;;;;3.47;1.05;;;12.40;74.60;;;;;;5093394;28;20082;-71
2023/04/28 08:29:15;;;;;;;1.45;1.00;;;12.40;74.70;;;;;;5092794;28;20036;-71
2023/04/28 08:31:41;;;;;;;1.17;1.08;;;12.40;74.80;;;;;;5112871;28;20043;-71
2023/04/28 08:34:06;;;;;;;1.42;1.00;;;12.50;74.90;;;;;;5112864;28;20036;-71
2023/04/28 08:36:32;;;;;;;1.33;1.00;;;12.70;74.90;;;;;;5112917;28;20040;-71
2023/04/28 08:39:00;;;;;;;2.10;1.23;;;12.60;74.70;;;;;;5112700;28;20032;-71
2023/04/28 08:41:28;;;;;;;1.15;0.95;;;12.70;74.70;;;;;;5076906;28;20048;-71
2023/04/28 08:43:53;;;;;;;1.27;0.88;;;12.80;74.80;;;;;;5093393;28;20044;-71
2023/04/28 08:46:21;;;;;;;1.02;0.93;;;12.90;74.80;;;;;;5112741;28;20035;-71
2023/04/28 08:48:48;;;;;;;0.80;0.80;;;12.90;74.80;;;;;;5112598;28;20070;-71
2023/04/28 08:51:17;;;;;;;1.10;0.98;;;13.00;74.80;;;;;;5112391;28;20118;-71
2023/04/28 08:53:52;;;;;;;1.00;0.90;;;13.10;74.90;;;;;;5112401;28;20077;-71
2023/04/28 08:56:21;;;;;;;0.98;0.82;;;13.10;75.00;;;;;;5112778;28;20497;-71
2023/04/28 08:58:47;;;;;;;1.15;0.95;;;13.00;75.00;;;;;;5112523;28;20044;-71
2023/04/28 09:01:13;;;;;;;0.98;0.80;;;13.10;75.20;;;;;;5094087;28;20047;-71
2023/04/28 09:03:39;;;;;;;1.60;1.05;;;13.00;75.20;;;;;;5094209;28;20051;-71
2023/04/28 09:06:05;;;;;;;1.23;1.00;;;13.10;75.40;;;;;;5112835;28;20389;-71
2023/04/28 09:08:30;;;;;;;1.45;1.00;;;13.10;75.50;;;;;;5112262;28;20043;-71
2023/04/28 09:11:08;;;;;;;1.27;0.93;;;13.20;75.60;;;;;;5112674;28;20130;-71
2023/04/28 09:13:34;;;;;;;1.58;1.00;;;13.10;75.60;;;;;;5112891;28;20158;-71
2023/04/28 09:16:01;;;;;;;0.75;0.75;;;13.20;75.80;;;;;;5112494;28;20054;-71
2023/04/28 09:18:29;;;;;;;2.03;1.10;;;13.20;75.80;;;;;;5112541;28;20069;-71
2023/04/28 09:21:06;;;;;;;0.95;0.80;;;13.30;75.90;;;;;;5112485;28;20499;-71
2023/04/28 09:23:32;;;;;;;1.10;1.00;;;13.30;76.00;;;;;;5112391;28;20044;-71
2023/04/28 09:26:01;;;;;;;1.30;1.02;;;13.20;76.10;;;;;;5112302;28;20039;-71
2023/04/28 09:28:27;;;;;;;1.08;0.90;;;13.30;76.20;;;;;;5090156;28;20055;-70
2023/04/28 09:30:53;;;;;;;1.15;0.80;;;13.30;76.30;;;;;;5115621;28;20052;-71
2023/04/28 09:33:20;;;;;;;2.15;0.90;;;13.30;76.30;;;;;;5116064;28;20044;-70
2023/04/28 09:35:47;;;;;;;1.42;0.93;;;13.30;76.50;;;;;;5115682;28;20031;-70
2023/04/28 09:38:13;;;;;;;0.75;0.75;;;13.40;76.50;;;;;;5115979;28;20032;-70
2023/04/28 09:40:54;;;;;;;0.95;0.77;;;13.40;76.50;;;;;;5115363;28;20138;-71
2023/04/28 09:43:24;;;;;;;0.77;0.77;;;13.50;76.70;;;;;;5095978;28;20036;-70
2023/04/28 09:45:50;;;;;;;1.17;1.00;;;13.50;76.60;;;;;;5079316;28;20036;-70
2023/04/28 09:48:16;;;;;;;1.65;0.82;;;13.50;76.60;;;;;;5115911;28;20364;-71
2023/04/28 09:50:41;;;;;;;1.17;0.95;;;13.50;76.70;;;;;;5096712;28;20051;-71
2023/04/28 09:53:11;;;;;;;0.93;0.90;;;13.50;76.70;;;;;;5115235;28;20043;-71
2023/04/28 09:55:42;;;;;;;1.45;1.10;;;13.50;77.00;;;;;;5115686;28;20122;-71
2023/04/28 09:58:10;;;;;;;1.75;0.90;;;13.40;77.10;;;;;;5097151;28;20044;-70
2023/04/28 10:00:39;;;;;;;1.65;1.00;;;13.40;77.30;;;;;;5115695;28;20044;-70
2023/04/28 10:03:06;;;;;;;0.85;0.80;;;13.40;77.40;;;;;;5115255;28;20039;-70
2023/04/28 10:05:34;;;;;;;0.98;0.88;;;13.50;77.50;;;;;;5115227;28;20456;-70
2023/04/28 10:08:01;;;;;;;1.25;1.00;;;13.50;77.50;;;;;;5115446;28;20071;-70
2023/04/28 10:10:27;;;;;;;1.08;0.95;;;13.50;77.50;;;;;;5115433;28;20054;-70
2023/04/28 10:12:54;;;;;;;0.90;0.85;;;13.50;77.50;;;;;;5115566;28;20047;-70
2023/04/28 10:15:21;;;;;;;0.95;0.85;;;13.60;77.60;;;;;;5115042;28;20048;-71
2023/04/28 10:17:49;;;;;;;1.10;0.80;;;13.70;77.70;;;;;;5115287;28;20042;-70
2023/04/28 10:20:15;;;;;;;1.10;0.90;;;13.50;77.80;;;;;;5114747;28;20047;-70
2023/04/28 10:22:58;;;;;;;1.35;1.05;;;13.50;77.90;;;;;;5114808;28;20550;-70
2023/04/28 10:25:28;;;;;;;0.68;0.68;;;13.50;78.10;;;;;;5114742;28;20043;-70
2023/04/28 10:27:55;;;;;;;1.40;1.10;;;13.50;78.20;;;;;;5114924;28;20047;-70
2023/04/28 10:30:22;;;;;;;1.38;1.27;;;13.60;78.30;;;;;;5114793;28;20047;-70
2023/04/28 10:33:22;;;;;;;1.45;1.20;;;13.60;78.30;;;;;;5096722;28;20043;-70
2023/04/28 10:35:47;;;;;;;1.92;1.30;;;13.50;78.40;;;;;;5114989;28;20111;-70
2023/04/28 10:38:16;;;;;;;2.70;1.60;;;13.60;78.40;;;;;;5114796;28;20040;-70
2023/04/28 10:40:44;;;;;;;1.75;1.40;;;13.60;78.40;;;;;;5094473;28;20044;-71
2023/04/28 10:43:13;;;;;;;1.80;1.50;;;13.50;78.50;;;;;;5114966;28;20520;-71
2023/04/28 10:46:01;;;;;;;1.83;1.20;;;13.60;78.70;;;;;;5114996;28;20040;-70
2023/04/28 10:48:54;;;;;;;1.52;1.23;;;13.70;79.50;;;;;;5099772;28;20031;-70
2023/04/28 10:51:21;;;;;;;1.40;1.30;;;13.70;78.90;;;;;;5099972;28;20036;-70
2023/04/28 10:54:07;;;;;;;1.88;1.50;;;13.70;78.90;;;;;;5114175;28;20048;-70
2023/04/28 10:56:32;;;;;;;1.52;1.35;;;13.60;79.00;;;;;;5114176;28;20127;-70
2023/04/28 10:58:59;;;;;;;1.88;1.50;;;13.70;79.10;;;;;;5096580;28;20086;-70
2023/04/28 11:01:30;;;;;;;1.30;1.10;;;13.70;79.20;;;;;;5096161;28;20047;-70
2023/04/28 11:04:02;;;;;;;;;;;13.60;79.20;;;;;;5115160;28;20088;-70
2023/04/28 11:06:34;;;;;;;1.60;1.30;;;13.70;79.10;;;;;;5114188;28;19919;-70
2023/04/28 11:09:40;;;;;;;1.48;1.25;;;13.80;79.20;;;;;;5095876;28;20105;-70
2023/04/28 11:12:09;;;;;;;1.20;1.10;;;13.80;79.30;;;;;;5086112;28;20093;-71
2023/04/28 11:14:36;;;;;;;1.40;1.10;;;13.70;79.80;;;;;;5114140;28;20093;-71
2023/04/28 11:17:04;;;;;;;1.20;1.10;;;13.90;79.30;;;;;;5114298;28;20063;-70
2023/04/28 11:19:38;;;;;;;1.23;0.95;;;13.90;79.40;;;;;;5095466;28;20104;-71
2023/04/28 11:22:10;;;;;;;0.82;0.82;;;13.90;79.50;;;;;;5113874;28;20040;-71
2023/04/28 11:24:36;;;;;;;1.13;1.02;;;14.00;79.60;;;;;;5113989;28;20048;-71
2023/04/28 11:27:01;;;;;;;1.50;0.95;;;14.00;79.60;;;;;;5093510;28;20047;-71
2023/04/28 11:29:34;;;;;;;1.15;1.05;;;14.10;79.60;;;;;;5094867;28;20127;-71
2023/04/28 11:32:00;;;;;;;1.35;1.10;;;14.10;79.70;;;;;;5113709;28;20102;-71
2023/04/28 11:34:25;;;;;;;1.30;1.00;;;14.10;79.70;;;;;;5113871;28;20400;-70
2023/04/28 11:36:51;;;;;;;1.10;1.00;;;14.10;79.90;;;;;;5114096;28;20036;-70
2023/04/28 11:39:27;;;;;;;1.42;1.15;;;14.00;80.00;;;;;;5113536;28;20113;-71
2023/04/28 11:41:54;;;;;;;1.70;1.15;;;14.00;80.30;;;;;;5113756;28;20074;-71
2023/04/28 11:44:23;;;;;;;1.70;1.25;;;14.00;80.40;;;;;;5113503;28;20046;-72
2023/04/28 11:46:56;;;;;;;1.60;1.25;;;13.90;80.50;;;;;;5113409;28;20541;-70
2023/04/28 11:49:23;;;;;;;1.25;1.15;;;13.90;80.70;;;;;;5113524;28;20040;-71
2023/04/28 11:51:50;;;;;;;1.67;1.30;;;14.00;80.90;;;;;;5113269;28;20043;-70
2023/04/28 11:54:24;;;;;;;1.75;1.30;;;14.10;80.90;;;;;;5113169;28;20935;-71
2023/04/28 11:56:51;;;;;;;2.17;1.50;;;14.30;80.90;;;;;;5113350;28;20109;-71
2023/04/28 11:59:23;;;;;;;2.05;1.38;;;14.30;80.50;;;;;;5113188;28;20930;-71
2023/04/28 12:01:52;;;;;;;2.20;1.55;;;14.50;80.40;;;;;;5095023;28;20056;-71
2023/04/28 12:04:34;;;;;;;2.08;1.50;;;14.50;80.90;;;;;;5113101;28;20047;-71
2023/04/28 12:07:04;;;;;;;1.98;1.60;;;14.50;80.30;;;;;;5113796;28;20043;-71
2023/04/28 12:09:32;;;;;;;3.38;1.52;;;14.50;80.50;;;;;;5113670;28;20040;-71
2023/04/28 12:12:01;;;;;;;1.65;1.45;;;14.50;80.60;;;;;;5113665;28;20032;-71
2023/04/28 12:14:29;;;;;;;2.35;1.50;;;14.50;80.70;;;;;;5113074;28;20093;-71
2023/04/28 12:16:55;;;;;;;2.38;1.60;;;14.50;80.80;;;;;;5113163;28;20035;-71
2023/04/28 12:19:21;;;;;;;2.22;1.70;;;14.40;81.00;;;;;;5113108;28;20493;-71
2023/04/28 12:22:04;;;;;;;2.00;1.58;;;14.40;81.00;;;;;;5112712;28;20058;-70
2023/04/28 12:24:31;;;;;;;2.47;1.73;;;14.40;81.20;;;;;;5093414;28;20086;-70
2023/04/28 12:27:15;;;;;;;2.10;1.50;;;14.40;81.20;;;;;;5113464;28;20039;-71
2023/04/28 12:29:42;;;;;;;2.88;1.80;;;14.40;81.40;;;;;;5094912;28;20493;-71
2023/04/28 12:32:09;;;;;;;1.67;1.35;;;14.50;81.50;;;;;;5113286;28;20083;-70
2023/04/28 12:34:36;;;;;;;2.20;1.45;;;14.40;81.50;;;;;;5113144;28;20047;-71
2023/04/28 12:37:04;;;;;;;2.47;1.50;;;14.40;81.80;;;;;;5113168;28;20106;-71
2023/04/28 12:39:31;;;;;;;1.52;1.30;;;14.30;81.90;;;;;;5113018;28;20486;-71
2023/04/28 12:41:58;;;;;;;2.20;1.40;;;14.30;81.90;;;;;;5094199;28;20082;-71
2023/04/28 12:44:26;;;;;;;1.85;1.30;;;14.30;82.00;;;;;;5112644;28;20100;-71
2023/04/28 12:46:52;;;;;;;1.50;1.20;;;14.20;82.20;;;;;;5112580;28;20051;-71
2023/04/28 12:49:18;;;;;;;1.70;1.30;;;14.20;82.30;;;;;;5112558;28;20044;-71
2023/04/28 12:51:43;;;;;;;1.42;1.10;;;14.20;82.40;;;;;;5094124;28;20097;-71